LFRB/BES METAR and TAF weather

Enter ICAO airport designator
Station Type Date Time Source
LFRB METAR 2024/05/29 00:00 UTC NOAA

LFRB 290000Z AUTO 24011KT 2400 BR OVC002 14/14 Q1015 TEMPO 0900 DZ FG VV///


Station Type Date Time Source
LFRB Decoded METAR 2024/05/29 00:00 UTC NOAA

Brest, France (LFRB) 48-27N 004-25W 103M
May 28, 2024 - 08:00 PM EDT / 2024.05.29 0000 UTC
Wind: from the WSW (240 degrees) at 13 MPH (11 KT):0
Visibility: 1 mile(s):0
Sky conditions: overcast
Weather: mist
Temperature: 57 F (14 C)
Dew Point: 57 F (14 C)
Relative Humidity: 100%
Pressure (altimeter): 29.97 in. Hg (1015 hPa)
ob: LFRB 290000Z AUTO 24011KT 2400 BR OVC002 14/14 Q1015 TEMPO 0900 DZ FG VV///
cycle: 0

Station Type Date Time Source
LFRB TAF 2024/05/28 21:53 UTC NOAA